sensor_id;sensor_type;location;lat;lon;timestamp;pressure;altitude;pressure_sealevel;temperature;humidity
45467;BME280;31212;49.734;8.490;2023-07-20T00:00:39;100030.03;;;18.59;60.59
45467;BME280;31212;49.734;8.490;2023-07-20T00:03:13;100037.16;;;18.56;60.98
45467;BME280;31212;49.734;8.490;2023-07-20T00:05:42;100057.41;;;18.54;61.09
45467;BME280;31212;49.734;8.490;2023-07-20T00:08:08;100057.41;;;18.54;61.31
45467;BME280;31212;49.734;8.490;2023-07-20T00:10:35;100057.34;;;18.55;61.43
45467;BME280;31212;49.734;8.490;2023-07-20T00:13:01;100053.81;;;18.56;61.48
45467;BME280;31212;49.734;8.490;2023-07-20T00:15:29;100042.66;;;18.49;60.96
45467;BME280;31212;49.734;8.490;2023-07-20T00:17:56;100036.56;;;18.49;61.06
45467;BME280;31212;49.734;8.490;2023-07-20T00:20:24;100047.09;;;18.47;61.18
45467;BME280;31212;49.734;8.490;2023-07-20T00:22:51;100046.50;;;18.39;61.55
45467;BME280;31212;49.734;8.490;2023-07-20T00:25:18;100053.59;;;18.37;61.35
45467;BME280;31212;49.734;8.490;2023-07-20T00:27:44;100054.69;;;18.31;61.32
45467;BME280;31212;49.734;8.490;2023-07-20T00:30:12;100032.97;;;18.26;61.19
45467;BME280;31212;49.734;8.490;2023-07-20T00:32:42;100048.16;;;18.16;61.46
45467;BME280;31212;49.734;8.490;2023-07-20T00:35:09;100068.63;;;18.07;62.22
45467;BME280;31212;49.734;8.490;2023-07-20T00:37:36;100076.75;;;17.99;62.17
45467;BME280;31212;49.734;8.490;2023-07-20T00:40:03;100078.91;;;17.86;62.34
45467;BME280;31212;49.734;8.490;2023-07-20T00:42:30;100080.94;;;17.78;62.59
45467;BME280;31212;49.734;8.490;2023-07-20T00:44:56;100100.44;;;17.69;62.85
45467;BME280;31212;49.734;8.490;2023-07-20T00:47:23;100105.13;;;17.59;63.06
45467;BME280;31212;49.734;8.490;2023-07-20T00:49:51;100130.03;;;17.46;64.02
45467;BME280;31212;49.734;8.490;2023-07-20T00:52:20;100129.63;;;17.30;64.38
45467;BME280;31212;49.734;8.490;2023-07-20T00:54:48;100157.09;;;17.18;64.92
45467;BME280;31212;49.734;8.490;2023-07-20T00:57:15;100174.03;;;17.06;65.48
45467;BME280;31212;49.734;8.490;2023-07-20T00:59:42;100191.63;;;17.01;66.17
45467;BME280;31212;49.734;8.490;2023-07-20T01:02:08;100186.75;;;16.87;66.02
45467;BME280;31212;49.734;8.490;2023-07-20T01:04:35;100200.13;;;16.76;66.66
45467;BME280;31212;49.734;8.490;2023-07-20T01:07:11;100211.69;;;16.68;67.09
45467;BME280;31212;49.734;8.490;2023-07-20T01:09:43;100222.31;;;16.63;67.50
45467;BME280;31212;49.734;8.490;2023-07-20T01:12:17;100239.06;;;16.56;68.03
45467;BME280;31212;49.734;8.490;2023-07-20T01:14:45;100243.69;;;16.46;68.54
45467;BME280;31212;49.734;8.490;2023-07-20T01:17:11;100240.38;;;16.38;68.54
45467;BME280;31212;49.734;8.490;2023-07-20T01:19:39;100232.84;;;16.24;68.53
45467;BME280;31212;49.734;8.490;2023-07-20T01:22:12;100236.41;;;16.21;68.81
45467;BME280;31212;49.734;8.490;2023-07-20T01:24:58;100243.53;;;16.14;69.50
45467;BME280;31212;49.734;8.490;2023-07-20T01:27:49;100244.50;;;16.10;69.23
45467;BME280;31212;49.734;8.490;2023-07-20T01:30:39;100239.22;;;16.12;69.42
45467;BME280;31212;49.734;8.490;2023-07-20T01:33:11;100242.94;;;16.02;69.65
45467;BME280;31212;49.734;8.490;2023-07-20T01:35:41;100251.66;;;16.01;69.89
45467;BME280;31212;49.734;8.490;2023-07-20T01:38:09;100255.38;;;15.92;70.04
45467;BME280;31212;49.734;8.490;2023-07-20T01:40:37;100251.91;;;15.91;70.33
45467;BME280;31212;49.734;8.490;2023-07-20T01:43:03;100263.44;;;15.79;70.97
45467;BME280;31212;49.734;8.490;2023-07-20T01:45:30;100268.84;;;15.72;71.69
45467;BME280;31212;49.734;8.490;2023-07-20T01:47:57;100283.75;;;15.67;71.48
45467;BME280;31212;49.734;8.490;2023-07-20T01:50:25;100278.72;;;15.59;72.30
45467;BME280;31212;49.734;8.490;2023-07-20T01:52:51;100275.34;;;15.52;72.51
45467;BME280;31212;49.734;8.490;2023-07-20T01:55:18;100279.88;;;15.42;72.58
45467;BME280;31212;49.734;8.490;2023-07-20T01:57:44;100279.06;;;15.40;72.95
45467;BME280;31212;49.734;8.490;2023-07-20T02:00:12;100279.06;;;15.40;73.02
45467;BME280;31212;49.734;8.490;2023-07-20T02:02:41;100277.41;;;15.33;73.48
45467;BME280;31212;49.734;8.490;2023-07-20T02:05:09;100288.00;;;15.27;73.92
45467;BME280;31212;49.734;8.490;2023-07-20T02:07:37;100294.06;;;15.30;74.27
45467;BME280;31212;49.734;8.490;2023-07-20T02:10:04;100297.59;;;15.28;74.61
45467;BME280;31212;49.734;8.490;2023-07-20T02:12:31;100307.22;;;15.26;75.09
45467;BME280;31212;49.734;8.490;2023-07-20T02:14:57;100302.69;;;15.34;74.92
45467;BME280;31212;49.734;8.490;2023-07-20T02:17:24;100291.63;;;15.21;74.95
45467;BME280;31212;49.734;8.490;2023-07-20T02:19:52;100303.09;;;15.12;75.19
45467;BME280;31212;49.734;8.490;2023-07-20T02:22:20;100302.41;;;15.01;75.59
45467;BME280;31212;49.734;8.490;2023-07-20T02:24:48;100312.13;;;14.93;75.88
45467;BME280;31212;49.734;8.490;2023-07-20T02:27:14;100316.47;;;14.92;76.19
45467;BME280;31212;49.734;8.490;2023-07-20T02:29:41;100323.47;;;14.92;76.53
45467;BME280;31212;49.734;8.490;2023-07-20T02:32:10;100325.16;;;14.96;76.97
45467;BME280;31212;49.734;8.490;2023-07-20T02:34:36;100315.50;;;15.01;76.61
45467;BME280;31212;49.734;8.490;2023-07-20T02:37:04;100308.47;;;15.03;76.29
45467;BME280;31212;49.734;8.490;2023-07-20T02:39:30;100290.03;;;15.11;75.66
45467;BME280;31212;49.734;8.490;2023-07-20T02:41:58;100280.56;;;15.05;75.24
45467;BME280;31212;49.734;8.490;2023-07-20T02:44:25;100283.25;;;14.99;75.21
45467;BME280;31212;49.734;8.490;2023-07-20T02:46:51;100283.28;;;14.97;74.91
45467;BME280;31212;49.734;8.490;2023-07-20T02:49:18;100274.56;;;14.99;75.04
45467;BME280;31212;49.734;8.490;2023-07-20T02:51:44;100251.97;;;14.96;73.86
45467;BME280;31212;49.734;8.490;2023-07-20T02:54:11;100247.75;;;14.86;73.92
45467;BME280;31212;49.734;8.490;2023-07-20T02:56:38;100248.66;;;14.86;73.88
45467;BME280;31212;49.734;8.490;2023-07-20T02:59:05;100240.00;;;14.83;73.67
45467;BME280;31212;49.734;8.490;2023-07-20T03:01:32;100247.00;;;14.80;73.63
45467;BME280;31212;49.734;8.490;2023-07-20T03:03:58;100247.91;;;14.78;73.70
45467;BME280;31212;49.734;8.490;2023-07-20T03:06:25;100247.75;;;14.86;73.31
45467;BME280;31212;49.734;8.490;2023-07-20T03:08:52;100239.84;;;14.92;73.07
45467;BME280;31212;49.734;8.490;2023-07-20T03:11:19;100238.94;;;14.93;73.01
45467;BME280;31212;49.734;8.490;2023-07-20T03:13:47;100247.72;;;14.87;73.03
45467;BME280;31212;49.734;8.490;2023-07-20T03:16:18;100250.50;;;14.79;73.54
45467;BME280;31212;49.734;8.490;2023-07-20T03:18:45;100259.97;;;14.85;73.84
45467;BME280;31212;49.734;8.490;2023-07-20T03:21:12;100260.94;;;14.81;73.73
45467;BME280;31212;49.734;8.490;2023-07-20T03:23:39;100257.44;;;14.82;73.84
45467;BME280;31212;49.734;8.490;2023-07-20T03:26:06;100268.75;;;14.81;74.06
45467;BME280;31212;49.734;8.490;2023-07-20T03:28:33;100274.03;;;14.79;73.96
45467;BME280;31212;49.734;8.490;2023-07-20T03:31:00;100256.47;;;14.88;73.64
45467;BME280;31212;49.734;8.490;2023-07-20T03:33:31;100250.47;;;14.81;73.61
45467;BME280;31212;49.734;8.490;2023-07-20T03:35:59;100267.13;;;14.75;73.71
45467;BME280;31212;49.734;8.490;2023-07-20T03:38:26;100255.78;;;14.75;73.49
45467;BME280;31212;49.734;8.490;2023-07-20T03:40:55;100268.19;;;14.63;73.70
45467;BME280;31212;49.734;8.490;2023-07-20T03:43:22;100287.31;;;14.64;73.89
45467;BME280;31212;49.734;8.490;2023-07-20T03:45:49;100280.34;;;14.61;74.35
45467;BME280;31212;49.734;8.490;2023-07-20T03:48:18;100304.00;;;14.54;75.01
45467;BME280;31212;49.734;8.490;2023-07-20T03:50:47;100331.19;;;14.40;76.17
45467;BME280;31212;49.734;8.490;2023-07-20T03:53:14;100346.09;;;14.30;77.08
45467;BME280;31212;49.734;8.490;2023-07-20T03:55:41;100363.59;;;14.25;77.79
45467;BME280;31212;49.734;8.490;2023-07-20T03:58:08;100371.47;;;14.21;78.41
45467;BME280;31212;49.734;8.490;2023-07-20T04:00:34;100375.88;;;14.17;78.88
45467;BME280;31212;49.734;8.490;2023-07-20T04:03:01;100383.72;;;14.16;79.27
45467;BME280;31212;49.734;8.490;2023-07-20T04:05:28;100377.72;;;14.10;79.32
45467;BME280;31212;49.734;8.490;2023-07-20T04:07:55;100366.28;;;14.18;79.32
45467;BME280;31212;49.734;8.490;2023-07-20T04:10:22;100368.88;;;14.19;79.30
45467;BME280;31212;49.734;8.490;2023-07-20T04:12:51;100362.75;;;14.23;79.22
45467;BME280;31212;49.734;8.490;2023-07-20T04:15:18;100347.06;;;14.23;78.55
45467;BME280;31212;49.734;8.490;2023-07-20T04:17:45;100355.81;;;14.21;78.62
45467;BME280;31212;49.734;8.490;2023-07-20T04:20:11;100364.59;;;14.15;78.87
45467;BME280;31212;49.734;8.490;2023-07-20T04:22:38;100361.03;;;14.19;78.83
45467;BME280;31212;49.734;8.490;2023-07-20T04:25:09;100362.81;;;14.19;78.62
45467;BME280;31212;49.734;8.490;2023-07-20T04:27:36;100369.75;;;14.18;79.24
45467;BME280;31212;49.734;8.490;2023-07-20T04:30:03;100391.56;;;14.17;79.98
45467;BME280;31212;49.734;8.490;2023-07-20T04:32:30;100373.28;;;14.14;79.84
45467;BME280;31212;49.734;8.490;2023-07-20T04:35:00;100372.47;;;14.12;79.64
45467;BME280;31212;49.734;8.490;2023-07-20T04:37:32;100364.59;;;14.13;79.11
45467;BME280;31212;49.734;8.490;2023-07-20T04:40:00;100357.59;;;14.19;78.95
45467;BME280;31212;49.734;8.490;2023-07-20T04:42:28;100356.56;;;14.29;78.56
45467;BME280;31212;49.734;8.490;2023-07-20T04:44:55;100354.00;;;14.26;78.01
45467;BME280;31212;49.734;8.490;2023-07-20T04:47:23;100346.94;;;14.33;77.93
45467;BME280;31212;49.734;8.490;2023-07-20T04:49:50;100343.34;;;14.43;77.57
45467;BME280;31212;49.734;8.490;2023-07-20T04:52:17;100336.28;;;14.48;77.49
45467;BME280;31212;49.734;8.490;2023-07-20T04:54:44;100353.53;;;14.60;77.53
45467;BME280;31212;49.734;8.490;2023-07-20T04:57:12;100342.97;;;14.69;77.73
45467;BME280;31212;49.734;8.490;2023-07-20T04:59:45;100350.59;;;14.85;77.60
45467;BME280;31212;49.734;8.490;2023-07-20T05:02:11;100337.34;;;14.97;77.00
45467;BME280;31212;49.734;8.490;2023-07-20T05:04:38;100326.47;;;15.22;76.17
45467;BME280;31212;49.734;8.490;2023-07-20T05:07:05;100313.91;;;15.41;75.57
45467;BME280;31212;49.734;8.490;2023-07-20T05:09:32;100295.44;;;15.50;75.07
45467;BME280;31212;49.734;8.490;2023-07-20T05:11:59;100289.06;;;15.63;75.05
45467;BME280;31212;49.734;8.490;2023-07-20T05:14:27;100285.28;;;15.80;74.26
45467;BME280;31212;49.734;8.490;2023-07-20T05:16:55;100274.50;;;15.95;73.66
45467;BME280;31212;49.734;8.490;2023-07-20T05:19:24;100263.84;;;16.05;73.42
45467;BME280;31212;49.734;8.490;2023-07-20T05:21:51;100267.75;;;16.24;73.26
45467;BME280;31212;49.734;8.490;2023-07-20T05:24:17;100250.84;;;16.38;72.89
45467;BME280;31212;49.734;8.490;2023-07-20T05:26:44;100246.06;;;16.55;72.48
45467;BME280;31212;49.734;8.490;2023-07-20T05:29:10;100243.78;;;16.77;72.14
45467;BME280;31212;49.734;8.490;2023-07-20T05:31:37;100238.94;;;16.98;71.51
45467;BME280;31212;49.734;8.490;2023-07-20T05:34:05;100203.53;;;17.14;70.05
45467;BME280;31212;49.734;8.490;2023-07-20T05:36:31;100183.81;;;17.31;69.60
45467;BME280;31212;49.734;8.490;2023-07-20T05:38:58;100162.97;;;17.56;68.49
45467;BME280;31212;49.734;8.490;2023-07-20T05:41:24;100138.81;;;17.73;67.85
45467;BME280;31212;49.734;8.490;2023-07-20T05:43:50;100111.13;;;17.93;66.45
45467;BME280;31212;49.734;8.490;2023-07-20T05:46:17;100082.84;;;18.01;65.49
45467;BME280;31212;49.734;8.490;2023-07-20T05:48:43;100077.94;;;18.17;65.20
45467;BME280;31212;49.734;8.490;2023-07-20T05:51:11;100052.78;;;18.35;64.11
45467;BME280;31212;49.734;8.490;2023-07-20T05:53:38;100038.47;;;18.44;63.58
45467;BME280;31212;49.734;8.490;2023-07-20T05:56:05;100029.13;;;18.60;63.01
45467;BME280;31212;49.734;8.490;2023-07-20T05:58:32;100039.13;;;18.74;62.81
45467;BME280;31212;49.734;8.490;2023-07-20T06:00:59;100024.03;;;18.79;62.88
45467;BME280;31212;49.734;8.490;2023-07-20T06:03:25;100015.97;;;18.84;61.94
45467;BME280;31212;49.734;8.490;2023-07-20T06:05:52;100018.69;;;19.06;61.87
45467;BME280;31212;49.734;8.490;2023-07-20T06:08:20;99985.09;;;19.13;60.99
45467;BME280;31212;49.734;8.490;2023-07-20T06:10:49;99990.13;;;19.19;60.87
45467;BME280;31212;49.734;8.490;2023-07-20T06:13:17;99985.28;;;19.08;60.60
45467;BME280;31212;49.734;8.490;2023-07-20T06:15:44;99983.56;;;19.29;60.38
45467;BME280;31212;49.734;8.490;2023-07-20T06:18:10;99969.81;;;19.45;59.94
45467;BME280;31212;49.734;8.490;2023-07-20T06:20:37;99963.97;;;19.59;59.47
45467;BME280;31212;49.734;8.490;2023-07-20T06:23:03;99966.22;;;19.68;59.29
45467;BME280;31212;49.734;8.490;2023-07-20T06:25:31;99950.72;;;19.82;58.92
45467;BME280;31212;49.734;8.490;2023-07-20T06:27:58;99925.31;;;19.81;58.47
45467;BME280;31212;49.734;8.490;2023-07-20T06:30:25;99955.63;;;20.11;58.45
45467;BME280;31212;49.734;8.490;2023-07-20T06:32:51;99956.81;;;20.24;58.32
45467;BME280;31212;49.734;8.490;2023-07-20T06:35:18;99947.19;;;20.44;57.83
45467;BME280;31212;49.734;8.490;2023-07-20T06:37:44;99923.38;;;20.64;57.29
45467;BME280;31212;49.734;8.490;2023-07-20T06:40:11;99897.81;;;20.86;56.43
45467;BME280;31212;49.734;8.490;2023-07-20T06:42:39;99899.31;;;20.72;56.36
45467;BME280;31212;49.734;8.490;2023-07-20T06:45:06;99912.16;;;20.80;56.59
45467;BME280;31212;49.734;8.490;2023-07-20T06:47:33;99911.13;;;21.02;56.30
45467;BME280;31212;49.734;8.490;2023-07-20T06:50:00;99882.66;;;21.08;55.65
45467;BME280;31212;49.734;8.490;2023-07-20T06:52:27;99903.53;;;21.30;55.56
45467;BME280;31212;49.734;8.490;2023-07-20T06:54:54;99862.41;;;21.44;54.59
45467;BME280;31212;49.734;8.490;2023-07-20T06:57:20;99826.72;;;21.70;53.54
45467;BME280;31212;49.734;8.490;2023-07-20T06:59:49;99846.06;;;21.88;53.69
45467;BME280;31212;49.734;8.490;2023-07-20T07:02:15;99824.91;;;22.54;52.59
45467;BME280;31212;49.734;8.490;2023-07-20T07:04:42;99784.34;;;23.15;50.78
45467;BME280;31212;49.734;8.490;2023-07-20T07:07:09;99753.56;;;23.43;49.91
45467;BME280;31212;49.734;8.490;2023-07-20T07:09:35;99744.19;;;23.23;49.76
45467;BME280;31212;49.734;8.490;2023-07-20T07:12:02;99784.38;;;22.99;50.49
45467;BME280;31212;49.734;8.490;2023-07-20T07:14:29;99838.53;;;22.78;51.86
45467;BME280;31212;49.734;8.490;2023-07-20T07:16:57;99786.63;;;22.45;51.11
45467;BME280;31212;49.734;8.490;2023-07-20T07:19:23;99815.47;;;22.16;51.82
45467;BME280;31212;49.734;8.490;2023-07-20T07:21:50;99846.69;;;22.09;52.44
45467;BME280;31212;49.734;8.490;2023-07-20T07:24:16;99848.31;;;22.12;52.14
45467;BME280;31212;49.734;8.490;2023-07-20T07:26:43;99865.94;;;21.95;52.83
45467;BME280;31212;49.734;8.490;2023-07-20T07:29:09;99864.75;;;21.67;53.07
45467;BME280;31212;49.734;8.490;2023-07-20T07:31:36;99883.16;;;22.02;52.94
45467;BME280;31212;49.734;8.490;2023-07-20T07:34:05;99895.56;;;22.36;52.64
45467;BME280;31212;49.734;8.490;2023-07-20T07:36:31;99868.00;;;23.34;51.36
45467;BME280;31212;49.734;8.490;2023-07-20T07:38:58;99732.53;;;24.40;47.70
45467;BME280;31212;49.734;8.490;2023-07-20T07:41:24;99659.19;;;25.43;45.39
45467;BME280;31212;49.734;8.490;2023-07-20T07:43:50;99635.88;;;26.21;44.27
45467;BME280;31212;49.734;8.490;2023-07-20T07:46:16;99660.06;;;25.81;44.86
45467;BME280;31212;49.734;8.490;2023-07-20T07:48:43;99632.22;;;25.37;45.04
45467;BME280;31212;49.734;8.490;2023-07-20T07:51:10;99664.81;;;24.87;45.31
45467;BME280;31212;49.734;8.490;2023-07-20T07:53:38;99694.19;;;24.31;46.23
45467;BME280;31212;49.734;8.490;2023-07-20T07:56:07;99722.50;;;23.89;47.25
45467;BME280;31212;49.734;8.490;2023-07-20T07:58:33;99733.75;;;23.78;47.67
45467;BME280;31212;49.734;8.490;2023-07-20T08:01:00;99738.91;;;23.81;47.51
45467;BME280;31212;49.734;8.490;2023-07-20T08:03:27;99775.34;;;23.77;48.39
45467;BME280;31212;49.734;8.490;2023-07-20T08:05:54;99778.81;;;23.49;48.49
45467;BME280;31212;49.734;8.490;2023-07-20T08:08:22;99775.28;;;23.20;48.49
45467;BME280;31212;49.734;8.490;2023-07-20T08:10:52;99813.66;;;23.72;48.64
45467;BME280;31212;49.734;8.490;2023-07-20T08:13:19;99750.81;;;24.44;47.13
45467;BME280;31212;49.734;8.490;2023-07-20T08:15:49;99739.94;;;25.15;46.33
45467;BME280;31212;49.734;8.490;2023-07-20T08:18:16;99655.00;;;26.26;43.40
45467;BME280;31212;49.734;8.490;2023-07-20T08:20:43;99535.91;;;27.32;40.57
45467;BME280;31212;49.734;8.490;2023-07-20T08:23:10;99500.50;;;28.48;38.99
45467;BME280;31212;49.734;8.490;2023-07-20T08:25:38;99460.88;;;29.64;37.01
45467;BME280;31212;49.734;8.490;2023-07-20T08:28:04;99428.47;;;29.67;36.63
45467;BME280;31212;49.734;8.490;2023-07-20T08:30:39;99402.88;;;29.55;35.88
45467;BME280;31212;49.734;8.490;2023-07-20T08:33:06;99481.41;;;29.34;37.04
45467;BME280;31212;49.734;8.490;2023-07-20T08:35:33;99455.53;;;30.31;36.49
45467;BME280;31212;49.734;8.490;2023-07-20T08:37:59;99419.97;;;30.59;35.12
45467;BME280;31212;49.734;8.490;2023-07-20T08:40:26;99395.28;;;31.01;34.29
45467;BME280;31212;49.734;8.490;2023-07-20T08:42:55;99383.56;;;31.74;33.90
45467;BME280;31212;49.734;8.490;2023-07-20T08:45:26;99347.53;;;32.11;32.90
45467;BME280;31212;49.734;8.490;2023-07-20T08:47:54;99326.66;;;32.23;32.58
45467;BME280;31212;49.734;8.490;2023-07-20T08:50:22;99308.56;;;31.99;32.08
45467;BME280;31212;49.734;8.490;2023-07-20T08:52:50;99411.97;;;30.01;35.04
45467;BME280;31212;49.734;8.490;2023-07-20T08:55:18;99315.44;;;33.36;30.70
45467;BME280;31212;49.734;8.490;2023-07-20T08:57:46;99312.91;;;34.08;30.00
45467;BME280;31212;49.734;8.490;2023-07-20T09:00:15;99289.53;;;33.44;30.09
45467;BME280;31212;49.734;8.490;2023-07-20T09:02:45;99269.03;;;31.57;31.11
45467;BME280;31212;49.734;8.490;2023-07-20T09:05:12;99333.53;;;30.57;32.73
45467;BME280;31212;49.734;8.490;2023-07-20T09:07:39;99381.53;;;31.32;32.44
45467;BME280;31212;49.734;8.490;2023-07-20T09:10:07;99356.75;;;32.09;31.43
45467;BME280;31212;49.734;8.490;2023-07-20T09:12:35;99353.94;;;33.37;30.16
45467;BME280;31212;49.734;8.490;2023-07-20T09:15:02;99269.06;;;33.91;28.96
45467;BME280;31212;49.734;8.490;2023-07-20T09:17:30;99276.41;;;33.16;29.29
45467;BME280;31212;49.734;8.490;2023-07-20T09:19:56;99214.94;;;32.80;28.55
45467;BME280;31212;49.734;8.490;2023-07-20T09:22:29;99276.69;;;32.12;29.98
45467;BME280;31212;49.734;8.490;2023-07-20T09:24:56;99309.88;;;33.38;29.30
45467;BME280;31212;49.734;8.490;2023-07-20T09:27:22;99223.13;;;33.92;27.87
45467;BME280;31212;49.734;8.490;2023-07-20T09:29:50;99277.16;;;33.74;28.82
45467;BME280;31212;49.734;8.490;2023-07-20T09:32:18;99215.34;;;35.13;27.04
45467;BME280;31212;49.734;8.490;2023-07-20T09:34:47;99214.13;;;35.16;27.22
45467;BME280;31212;49.734;8.490;2023-07-20T09:37:13;99176.28;;;34.01;27.33
45467;BME280;31212;49.734;8.490;2023-07-20T09:39:43;99241.53;;;33.64;28.34
45467;BME280;31212;49.734;8.490;2023-07-20T09:42:11;99261.44;;;33.13;29.09
45467;BME280;31212;49.734;8.490;2023-07-20T09:44:38;99277.41;;;32.74;29.38
45467;BME280;31212;49.734;8.490;2023-07-20T09:47:05;99266.56;;;32.41;29.87
45467;BME280;31212;49.734;8.490;2023-07-20T09:49:32;99365.97;;;32.83;30.71
45467;BME280;31212;49.734;8.490;2023-07-20T09:52:01;99236.38;;;33.46;28.33
45467;BME280;31212;49.734;8.490;2023-07-20T09:54:29;99231.38;;;33.34;28.33
45467;BME280;31212;49.734;8.490;2023-07-20T09:56:55;99219.25;;;33.22;28.33
45467;BME280;31212;49.734;8.490;2023-07-20T09:59:22;99209.03;;;31.58;29.17
45467;BME280;31212;49.734;8.490;2023-07-20T10:01:53;99283.03;;;31.60;30.36
45467;BME280;31212;49.734;8.490;2023-07-20T10:04:23;99267.63;;;32.56;29.21
45467;BME280;31212;49.734;8.490;2023-07-20T10:06:52;99226.19;;;32.75;28.25
45467;BME280;31212;49.734;8.490;2023-07-20T10:09:23;99207.16;;;33.18;27.79
45467;BME280;31212;49.734;8.490;2023-07-20T10:11:51;99240.91;;;34.01;27.67
45467;BME280;31212;49.734;8.490;2023-07-20T10:14:20;99152.72;;;33.64;27.01
45467;BME280;31212;49.734;8.490;2023-07-20T10:16:50;99176.91;;;33.16;27.57
45467;BME280;31212;49.734;8.490;2023-07-20T10:19:22;99157.56;;;33.68;26.77
45467;BME280;31212;49.734;8.490;2023-07-20T10:21:55;99192.03;;;33.17;27.66
45467;BME280;31212;49.734;8.490;2023-07-20T10:24:24;99242.03;;;33.59;28.07
45467;BME280;31212;49.734;8.490;2023-07-20T10:26:51;99167.72;;;32.94;27.67
45467;BME280;31212;49.734;8.490;2023-07-20T10:29:18;99184.53;;;31.00;29.44
45467;BME280;31212;49.734;8.490;2023-07-20T10:31:46;99240.50;;;31.21;30.16
45467;BME280;31212;49.734;8.490;2023-07-20T10:34:12;99308.25;;;31.76;30.10
45467;BME280;31212;49.734;8.490;2023-07-20T10:36:44;99212.53;;;33.34;27.72
45467;BME280;31212;49.734;8.490;2023-07-20T10:39:22;99132.84;;;33.73;26.93
45467;BME280;31212;49.734;8.490;2023-07-20T10:41:59;99115.50;;;33.36;26.51
45467;BME280;31212;49.734;8.490;2023-07-20T10:44:26;99193.06;;;32.42;28.66
45467;BME280;31212;49.734;8.490;2023-07-20T10:46:58;99186.72;;;31.49;29.06
45467;BME280;31212;49.734;8.490;2023-07-20T10:49:25;99227.44;;;31.79;29.34
45467;BME280;31212;49.734;8.490;2023-07-20T10:51:57;99181.63;;;30.49;30.32
45467;BME280;31212;49.734;8.490;2023-07-20T10:54:34;99237.44;;;29.23;31.72
45467;BME280;31212;49.734;8.490;2023-07-20T10:57:23;99310.44;;;28.64;33.36
45467;BME280;31212;49.734;8.490;2023-07-20T10:59:50;99349.41;;;28.36;34.02
45467;BME280;31212;49.734;8.490;2023-07-20T11:02:17;99362.84;;;27.73;34.73
45467;BME280;31212;49.734;8.490;2023-07-20T11:04:46;99407.56;;;27.48;35.33
45467;BME280;31212;49.734;8.490;2023-07-20T11:07:15;99451.44;;;26.55;37.10
45467;BME280;31212;49.734;8.490;2023-07-20T11:09:42;99496.22;;;26.38;37.96
45467;BME280;31212;49.734;8.490;2023-07-20T11:12:09;99496.78;;;26.19;37.66
45467;BME280;31212;49.734;8.490;2023-07-20T11:14:40;99547.34;;;26.30;38.09
45467;BME280;31212;49.734;8.490;2023-07-20T11:17:11;99576.66;;;26.42;38.90
45467;BME280;31212;49.734;8.490;2023-07-20T11:19:38;99546.72;;;26.74;37.97
45467;BME280;31212;49.734;8.490;2023-07-20T11:22:05;99569.19;;;26.69;38.56
45467;BME280;31212;49.734;8.490;2023-07-20T11:24:34;99558.03;;;26.42;38.52
45467;BME280;31212;49.734;8.490;2023-07-20T11:27:01;99590.03;;;26.17;39.14
45467;BME280;31212;49.734;8.490;2023-07-20T11:29:27;99604.94;;;25.83;39.82
45467;BME280;31212;49.734;8.490;2023-07-20T11:31:56;99595.03;;;25.61;39.64
45467;BME280;31212;49.734;8.490;2023-07-20T11:34:24;99571.75;;;25.14;39.68
45467;BME280;31212;49.734;8.490;2023-07-20T11:36:51;99623.06;;;25.15;40.52
45467;BME280;31212;49.734;8.490;2023-07-20T11:39:19;99628.28;;;25.29;40.25
45467;BME280;31212;49.734;8.490;2023-07-20T11:41:48;99632.63;;;26.64;39.34
45467;BME280;31212;49.734;8.490;2023-07-20T11:44:15;99573.44;;;27.51;37.42
45467;BME280;31212;49.734;8.490;2023-07-20T11:46:42;99535.72;;;28.94;35.76
45467;BME280;31212;49.734;8.490;2023-07-20T11:49:11;99486.34;;;29.49;34.56
45467;BME280;31212;49.734;8.490;2023-07-20T11:51:39;99440.84;;;29.19;34.10
45467;BME280;31212;49.734;8.490;2023-07-20T11:54:07;99435.75;;;28.87;34.41
45467;BME280;31212;49.734;8.490;2023-07-20T11:56:34;99455.66;;;29.43;34.47
45467;BME280;31212;49.734;8.490;2023-07-20T11:59:01;99399.09;;;29.48;32.99
45467;BME280;31212;49.734;8.490;2023-07-20T12:01:29;99372.22;;;28.60;33.71
45467;BME280;31212;49.734;8.490;2023-07-20T12:03:57;99373.06;;;27.89;34.38
45467;BME280;31212;49.734;8.490;2023-07-20T12:06:27;99399.47;;;27.92;34.93
45467;BME280;31212;49.734;8.490;2023-07-20T12:08:54;99383.59;;;27.69;34.54
45467;BME280;31212;49.734;8.490;2023-07-20T12:11:34;99412.00;;;27.38;35.41
45467;BME280;31212;49.734;8.490;2023-07-20T12:14:01;99414.19;;;26.89;36.18
45467;BME280;31212;49.734;8.490;2023-07-20T12:16:29;99409.00;;;26.64;36.05
45467;BME280;31212;49.734;8.490;2023-07-20T12:19:00;99454.25;;;26.53;36.96
45467;BME280;31212;49.734;8.490;2023-07-20T12:21:28;99475.59;;;26.06;37.78
45467;BME280;31212;49.734;8.490;2023-07-20T12:23:56;99470.53;;;25.79;37.82
45467;BME280;31212;49.734;8.490;2023-07-20T12:26:22;99492.34;;;25.60;38.21
45467;BME280;31212;49.734;8.490;2023-07-20T12:28:49;99514.75;;;25.31;38.99
45467;BME280;31212;49.734;8.490;2023-07-20T12:31:16;99557.59;;;25.27;39.67
45467;BME280;31212;49.734;8.490;2023-07-20T12:33:42;99548.53;;;25.05;39.83
45467;BME280;31212;49.734;8.490;2023-07-20T12:36:09;99544.50;;;24.87;39.74
45467;BME280;31212;49.734;8.490;2023-07-20T12:38:37;99579.53;;;24.79;40.26
45467;BME280;31212;49.734;8.490;2023-07-20T12:41:04;99581.25;;;24.80;40.55
45467;BME280;31212;49.734;8.490;2023-07-20T12:43:30;99598.56;;;24.73;41.03
45467;BME280;31212;49.734;8.490;2023-07-20T12:45:57;99579.44;;;24.67;40.43
45467;BME280;31212;49.734;8.490;2023-07-20T12:48:24;99602.00;;;24.60;40.86
45467;BME280;31212;49.734;8.490;2023-07-20T12:50:51;99624.22;;;24.59;41.29
45467;BME280;31212;49.734;8.490;2023-07-20T12:53:17;99608.19;;;24.74;41.03
45467;BME280;31212;49.734;8.490;2023-07-20T12:55:45;99630.63;;;24.82;41.40
45467;BME280;31212;49.734;8.490;2023-07-20T12:58:12;99599.72;;;24.94;40.80